createdAt,value
2016-08-13T04:00:58.199Z,1018.49
2016-08-13T04:01:23.846Z,1018.49
2016-08-13T04:02:27.030Z,1018.47
2016-08-13T04:03:35.324Z,1018.45
2016-08-13T04:04:33.400Z,1018.47
2016-08-13T04:04:58.978Z,1018.43
2016-08-13T04:05:24.546Z,1018.42
2016-08-13T04:05:50.088Z,1018.42
2016-08-13T04:06:15.652Z,1018.44
2016-08-13T04:06:41.426Z,1018.4
2016-08-13T04:07:06.973Z,1018.38
2016-08-13T04:07:32.536Z,1018.43
2016-08-13T04:07:58.083Z,1018.42
2016-08-13T04:08:23.642Z,1018.43
2016-08-13T04:08:49.190Z,1018.39
2016-08-13T04:09:14.741Z,1018.39
2016-08-13T04:09:40.294Z,1018.4
2016-08-13T04:10:05.857Z,1018.42
2016-08-13T04:10:31.428Z,1018.42
2016-08-13T04:10:57.068Z,1018.41
2016-08-13T04:11:22.614Z,1018.41
2016-08-13T04:11:48.209Z,1018.36
2016-08-13T04:12:13.883Z,1018.43
2016-08-13T04:12:39.425Z,1018.38
2016-08-13T04:13:04.997Z,1018.45
2016-08-13T04:13:30.687Z,1018.4
2016-08-13T04:13:56.233Z,1018.38
2016-08-13T04:14:21.965Z,1018.39
2016-08-13T04:14:47.576Z,1018.41
2016-08-13T04:15:13.107Z,1018.42
2016-08-13T04:15:38.665Z,1018.42
2016-08-13T04:16:04.279Z,1018.4
2016-08-13T04:16:29.877Z,1018.46
2016-08-13T04:16:55.433Z,1018.4
2016-08-13T04:17:20.995Z,1018.42
2016-08-13T04:17:46.539Z,1018.39
2016-08-13T04:18:12.102Z,1018.39
2016-08-13T04:18:37.662Z,1018.41
2016-08-13T04:19:03.217Z,1018.44
2016-08-13T04:19:28.774Z,1018.4
2016-08-13T04:19:54.344Z,1018.44
2016-08-13T04:20:19.898Z,1018.43
2016-08-13T04:20:45.450Z,1018.42
2016-08-13T04:21:11.006Z,1018.42
2016-08-13T04:21:36.573Z,1018.39
2016-08-13T04:22:02.258Z,1018.37
2016-08-13T04:22:27.867Z,1018.43
2016-08-13T04:22:53.430Z,1018.4
2016-08-13T04:23:18.986Z,1018.4
2016-08-13T04:23:44.543Z,1018.39
2016-08-13T04:24:10.112Z,1018.39
2016-08-13T04:24:35.680Z,1018.41
2016-08-13T04:25:01.254Z,1018.43
2016-08-13T04:25:26.812Z,1018.44
2016-08-13T04:25:52.425Z,1018.43
2016-08-13T04:26:17.972Z,1018.43
2016-08-13T04:26:43.536Z,1018.44
2016-08-13T04:27:09.181Z,1018.46
2016-08-13T04:27:34.737Z,1018.4
2016-08-13T04:28:00.341Z,1018.48
2016-08-13T04:28:25.901Z,1018.46
2016-08-13T04:28:51.460Z,1018.44
2016-08-13T04:29:17.024Z,1018.44
2016-08-13T04:29:42.594Z,1018.46
2016-08-13T04:30:08.148Z,1018.44
2016-08-13T04:30:33.677Z,1018.45
2016-08-13T04:30:59.220Z,1018.44
2016-08-13T04:31:24.767Z,1018.45
2016-08-13T04:31:50.338Z,1018.43
2016-08-13T04:32:15.873Z,1018.45
2016-08-13T04:32:41.411Z,1018.43
2016-08-13T04:33:06.955Z,1018.39
2016-08-13T04:33:32.510Z,1018.42
2016-08-13T04:33:58.037Z,1018.39
2016-08-13T04:34:23.695Z,1018.39
2016-08-13T04:34:49.244Z,1018.43
2016-08-13T04:35:14.799Z,1018.38
2016-08-13T04:38:16.058Z,1018.45
2016-08-13T04:38:41.698Z,1018.46
2016-08-13T04:39:07.279Z,1018.43
2016-08-13T04:39:32.836Z,1018.43
2016-08-13T04:39:58.435Z,1018.46
2016-08-13T04:40:24.041Z,1018.44
2016-08-13T04:40:49.607Z,1018.45
2016-08-13T04:41:15.167Z,1018.49
2016-08-13T04:41:40.891Z,1018.44
2016-08-13T04:42:06.455Z,1018.47
2016-08-13T04:42:32.023Z,1018.46
2016-08-13T04:42:57.572Z,1018.45
2016-08-13T04:43:23.128Z,1018.46
2016-08-13T04:43:48.699Z,1018.44
2016-08-13T04:44:14.235Z,1018.46
2016-08-13T04:44:39.770Z,1018.47
2016-08-13T04:45:05.312Z,1018.5
2016-08-13T04:45:30.847Z,1018.49
2016-08-13T04:45:56.422Z,1018.46
2016-08-13T04:46:21.959Z,1018.49
2016-08-13T04:46:47.501Z,1018.5
2016-08-13T04:47:13.038Z,1018.48
2016-08-13T04:47:38.582Z,1018.45
2016-08-13T04:48:04.178Z,1018.45
2016-08-13T04:48:29.731Z,1018.48
2016-08-13T04:48:55.280Z,1018.44
2016-08-13T04:49:20.826Z,1018.45
2016-08-13T04:49:46.382Z,1018.43
2016-08-13T04:50:11.912Z,1018.45
2016-08-13T04:50:37.524Z,1018.49
2016-08-13T04:51:03.098Z,1018.47
2016-08-13T04:51:28.671Z,1018.49
2016-08-13T04:51:54.249Z,1018.48
2016-08-13T04:52:19.791Z,1018.48
2016-08-13T04:52:45.357Z,1018.51
2016-08-13T04:53:10.921Z,1018.5
2016-08-13T04:53:36.483Z,1018.55
2016-08-13T04:54:02.049Z,1018.5
2016-08-13T04:54:27.654Z,1018.5
2016-08-13T04:54:53.183Z,1018.5
2016-08-13T04:55:18.731Z,1018.53
2016-08-13T04:55:44.273Z,1018.52
2016-08-13T04:57:35.643Z,1018.44
2016-08-13T04:58:01.191Z,1018.45
2016-08-13T04:58:26.742Z,1018.48
2016-08-13T04:58:52.299Z,1018.46
2016-08-13T04:59:17.899Z,1018.45
2016-08-13T04:59:43.464Z,1018.42
2016-08-13T05:00:09.038Z,1018.43
2016-08-13T05:00:34.672Z,1018.38
2016-08-13T05:01:00.225Z,1018.4
2016-08-13T05:01:25.808Z,1018.4
2016-08-13T05:02:34.163Z,1018.37
2016-08-13T05:02:59.747Z,1018.38
2016-08-13T05:03:25.300Z,1018.38
2016-08-13T05:03:50.909Z,1018.38
2016-08-13T05:04:16.482Z,1018.36
2016-08-13T05:04:42.092Z,1018.39
2016-08-13T05:05:07.651Z,1018.37
2016-08-13T05:05:33.376Z,1018.38
2016-08-13T05:05:59.001Z,1018.42
2016-08-13T05:06:24.572Z,1018.35
2016-08-13T05:06:50.186Z,1018.39
2016-08-13T05:07:15.779Z,1018.38
2016-08-13T05:07:41.352Z,1018.42
2016-08-13T05:08:06.957Z,1018.4
2016-08-13T05:08:32.521Z,1018.38
2016-08-13T05:08:58.076Z,1018.38
2016-08-13T05:09:23.643Z,1018.39
2016-08-13T05:10:37.174Z,1018.38
2016-08-13T05:11:02.817Z,1018.38
2016-08-13T05:11:28.386Z,1018.37
2016-08-13T05:11:54.030Z,1018.35
2016-08-13T05:12:19.601Z,1018.35
2016-08-13T05:12:45.184Z,1018.39
2016-08-13T05:13:10.735Z,1018.38
2016-08-13T05:13:36.396Z,1018.36
2016-08-13T05:14:01.951Z,1018.36
2016-08-13T05:14:27.525Z,1018.38
2016-08-13T05:14:53.094Z,1018.38
2016-08-13T05:15:18.676Z,1018.37
2016-08-13T05:15:44.251Z,1018.37
2016-08-13T05:16:09.832Z,1018.4
2016-08-13T05:16:35.427Z,1018.38
2016-08-13T05:17:00.974Z,1018.41
2016-08-13T05:17:26.577Z,1018.4
2016-08-13T05:17:52.155Z,1018.41
2016-08-13T05:18:17.791Z,1018.4
2016-08-13T05:18:43.364Z,1018.38
2016-08-13T05:19:08.923Z,1018.39
2016-08-13T05:19:34.496Z,1018.41
2016-08-13T05:20:00.069Z,1018.37
2016-08-13T05:20:25.746Z,1018.4
2016-08-13T05:20:51.420Z,1018.38
2016-08-13T05:21:16.994Z,1018.36
2016-08-13T05:21:42.549Z,1018.42
2016-08-13T05:22:08.113Z,1018.4
2016-08-13T05:22:33.674Z,1018.36
2016-08-13T05:22:59.243Z,1018.43
2016-08-13T05:23:24.812Z,1018.4
2016-08-13T05:23:50.388Z,1018.4
2016-08-13T05:24:15.950Z,1018.4
2016-08-13T05:24:41.517Z,1018.41
2016-08-13T05:25:07.213Z,1018.4
2016-08-13T05:25:32.756Z,1018.38
2016-08-13T05:25:58.300Z,1018.4
2016-08-13T05:26:23.871Z,1018.41
2016-08-13T05:26:49.497Z,1018.41
2016-08-13T05:27:15.048Z,1018.4
2016-08-13T05:27:40.609Z,1018.38
2016-08-13T05:28:06.177Z,1018.4
2016-08-13T05:28:31.738Z,1018.48
2016-08-13T05:28:57.297Z,1018.45
2016-08-13T05:29:22.854Z,1018.46
2016-08-13T05:29:48.428Z,1018.47
2016-08-13T05:30:14.026Z,1018.41
2016-08-13T05:30:39.680Z,1018.44
2016-08-13T05:31:05.281Z,1018.47
2016-08-13T05:31:30.866Z,1018.45
2016-08-13T05:31:56.493Z,1018.46
2016-08-13T05:32:22.058Z,1018.48
2016-08-13T05:32:47.694Z,1018.49
2016-08-13T05:33:13.250Z,1018.51
2016-08-13T05:33:38.816Z,1018.47
2016-08-13T05:34:04.377Z,1018.5
2016-08-13T05:34:29.954Z,1018.48
2016-08-13T05:34:55.532Z,1018.48
2016-08-13T05:35:21.115Z,1018.5
2016-08-13T05:35:46.757Z,1018.52
2016-08-13T05:36:12.353Z,1018.5
2016-08-13T05:36:37.937Z,1018.47
2016-08-13T05:37:03.486Z,1018.5
2016-08-13T05:37:29.057Z,1018.5
2016-08-13T05:37:54.666Z,1018.48
2016-08-13T05:38:20.292Z,1018.52
2016-08-13T05:38:45.852Z,1018.45
2016-08-13T05:39:11.437Z,1018.52
2016-08-13T05:39:37.036Z,1018.5
2016-08-13T05:40:55.735Z,1018.45
2016-08-13T05:41:21.541Z,1018.5
2016-08-13T05:41:47.127Z,1018.52
2016-08-13T05:42:12.701Z,1018.54
2016-08-13T05:42:38.255Z,1018.56
2016-08-13T05:43:03.824Z,1018.56
2016-08-13T05:43:29.388Z,1018.55
2016-08-13T05:43:54.968Z,1018.51
2016-08-13T05:44:20.641Z,1018.54
2016-08-13T05:44:46.210Z,1018.52
2016-08-13T05:45:11.787Z,1018.49
2016-08-13T05:45:37.350Z,1018.53
2016-08-13T05:46:03.002Z,1018.5
2016-08-13T05:46:28.560Z,1018.48
2016-08-13T05:47:47.474Z,1018.47
2016-08-13T05:48:13.045Z,1018.49
2016-08-13T05:48:38.621Z,1018.55
2016-08-13T05:49:04.188Z,1018.48
2016-08-13T05:49:29.756Z,1018.47
2016-08-13T05:49:55.443Z,1018.49
2016-08-13T05:50:21.004Z,1018.5
2016-08-13T05:50:46.573Z,1018.5
2016-08-13T05:51:12.141Z,1018.55
2016-08-13T05:51:37.689Z,1018.53
2016-08-13T05:52:03.430Z,1018.5
2016-08-13T05:52:28.996Z,1018.53
2016-08-13T05:52:54.566Z,1018.57
2016-08-13T05:53:20.155Z,1018.52
2016-08-13T05:53:45.734Z,1018.48
2016-08-13T05:54:11.329Z,1018.49
2016-08-13T05:54:36.907Z,1018.52
2016-08-13T05:55:02.481Z,1018.52
2016-08-13T05:55:28.270Z,1018.5
2016-08-13T05:55:53.856Z,1018.59
2016-08-13T05:56:19.420Z,1018.53
2016-08-13T05:56:45.066Z,1018.51
2016-08-13T05:57:10.666Z,1018.46
2016-08-13T05:57:36.227Z,1018.49
2016-08-13T05:58:01.785Z,1018.51
2016-08-13T05:58:27.479Z,1018.51
2016-08-13T05:58:53.023Z,1018.47
2016-08-13T05:59:18.597Z,1018.47
2016-08-13T05:59:44.161Z,1018.46
2016-08-13T06:00:09.738Z,1018.45
2016-08-13T06:00:35.302Z,1018.42
2016-08-13T06:01:33.385Z,1018.4
2016-08-13T06:01:58.940Z,1018.33
2016-08-13T06:02:24.508Z,1018.46
2016-08-13T06:02:50.193Z,1018.46
2016-08-13T06:03:15.768Z,1018.42
2016-08-13T06:03:41.528Z,1018.43
2016-08-13T06:04:07.088Z,1018.42
2016-08-13T06:04:32.657Z,1018.46
2016-08-13T06:04:58.363Z,1018.45
2016-08-13T06:05:23.941Z,1018.41
2016-08-13T06:05:49.530Z,1018.43
2016-08-13T06:06:15.087Z,1018.5
2016-08-13T06:06:40.756Z,1018.43
2016-08-13T06:07:06.312Z,1018.39
2016-08-13T06:07:31.931Z,1018.34
2016-08-13T06:07:57.547Z,1018.47
2016-08-13T06:08:23.102Z,1018.41
2016-08-13T06:08:48.723Z,1018.41
2016-08-13T06:09:14.304Z,1018.41
2016-08-13T06:09:39.916Z,1018.47
2016-08-13T06:10:05.546Z,1018.44
2016-08-13T06:10:31.200Z,1018.52
2016-08-13T06:10:56.766Z,1018.49
2016-08-13T06:11:22.320Z,1018.49
2016-08-13T06:11:47.879Z,1018.47
2016-08-13T06:12:13.516Z,1018.5
2016-08-13T06:12:39.118Z,1018.47
2016-08-13T06:13:04.684Z,1018.54
2016-08-13T06:13:30.640Z,1018.5
2016-08-13T06:13:56.200Z,1018.51
2016-08-13T06:14:21.802Z,1018.47
2016-08-13T06:15:30.126Z,1018.56
2016-08-13T06:16:33.411Z,1018.5
2016-08-13T06:16:58.985Z,1018.5
2016-08-13T06:17:24.559Z,1018.48
2016-08-13T06:17:50.110Z,1018.47
2016-08-13T06:18:15.731Z,1018.45
2016-08-13T06:18:41.299Z,1018.52
2016-08-13T06:19:06.892Z,1018.55
2016-08-13T06:19:32.603Z,1018.46
2016-08-13T06:19:58.149Z,1018.52
2016-08-13T06:20:23.704Z,1018.51
2016-08-13T06:20:49.268Z,1018.43
2016-08-13T06:21:14.916Z,1018.51
2016-08-13T06:21:40.458Z,1018.49
2016-08-13T06:22:06.026Z,1018.48
2016-08-13T06:22:31.591Z,1018.5
2016-08-13T06:22:57.550Z,1018.46
2016-08-13T06:23:23.173Z,1018.46
2016-08-13T06:23:48.726Z,1018.52
2016-08-13T06:24:14.293Z,1018.52
2016-08-13T06:24:39.846Z,1018.53
2016-08-13T06:25:05.475Z,1018.48
2016-08-13T06:25:31.094Z,1018.47
2016-08-13T06:25:56.668Z,1018.5
2016-08-13T06:26:22.333Z,1018.47
2016-08-13T06:26:47.880Z,1018.51
2016-08-13T06:27:13.434Z,1018.56
2016-08-13T06:27:38.995Z,1018.55
2016-08-13T06:28:04.677Z,1018.48
2016-08-13T06:28:30.224Z,1018.52
2016-08-13T06:28:55.773Z,1018.54
2016-08-13T06:29:21.459Z,1018.54
2016-08-13T06:29:47.091Z,1018.53
2016-08-13T06:30:12.586Z,1018.55
2016-08-13T06:30:38.133Z,1018.55
2016-08-13T06:31:03.730Z,1018.55
2016-08-13T06:31:29.321Z,1018.51
2016-08-13T06:31:54.872Z,1018.55
2016-08-13T06:32:20.485Z,1018.57
2016-08-13T06:32:46.055Z,1018.51
2016-08-13T06:33:11.639Z,1018.52
2016-08-13T06:33:37.202Z,1018.49
2016-08-13T06:34:02.768Z,1018.51
2016-08-13T06:34:28.484Z,1018.53
2016-08-13T06:34:54.055Z,1018.54
2016-08-13T06:35:19.601Z,1018.48
2016-08-13T06:35:45.163Z,1018.58
2016-08-13T06:36:10.729Z,1018.6
2016-08-13T06:36:36.337Z,1018.59
2016-08-13T06:37:01.952Z,1018.54
2016-08-13T06:37:27.673Z,1018.56
2016-08-13T06:37:53.238Z,1018.58
2016-08-13T06:38:18.872Z,1018.58
2016-08-13T06:38:44.525Z,1018.57
2016-08-13T06:39:10.116Z,1018.55
2016-08-13T06:39:35.696Z,1018.52
2016-08-13T06:40:01.260Z,1018.51
2016-08-13T06:40:26.853Z,1018.57
2016-08-13T06:40:52.413Z,1018.55
2016-08-13T06:41:17.994Z,1018.57
2016-08-13T06:41:43.667Z,1018.58
2016-08-13T06:42:09.233Z,1018.59
2016-08-13T06:42:34.806Z,1018.6
2016-08-13T06:43:00.594Z,1018.6
2016-08-13T06:43:26.285Z,1018.62
2016-08-13T06:43:51.811Z,1018.63
2016-08-13T06:44:17.340Z,1018.62
2016-08-13T06:44:42.929Z,1018.61
2016-08-13T06:45:08.496Z,1018.68
2016-08-13T06:45:34.748Z,1018.59
2016-08-13T06:46:00.354Z,1018.65
2016-08-13T06:46:25.891Z,1018.62
2016-08-13T06:46:51.547Z,1018.65
2016-08-13T06:47:17.279Z,1018.64
2016-08-13T06:47:42.822Z,1018.66
2016-08-13T06:48:08.367Z,1018.68
2016-08-13T06:48:33.931Z,1018.67
2016-08-13T06:48:59.472Z,1018.73
2016-08-13T06:49:25.016Z,1018.71
2016-08-13T06:50:33.350Z,1018.7
2016-08-13T06:50:58.932Z,1018.66
2016-08-13T06:51:24.497Z,1018.69
2016-08-13T06:51:50.067Z,1018.68
2016-08-13T06:52:15.647Z,1018.67
2016-08-13T06:52:41.282Z,1018.69
2016-08-13T06:53:06.933Z,1018.71
2016-08-13T06:53:32.501Z,1018.71
2016-08-13T06:53:58.054Z,1018.7
2016-08-13T06:54:23.631Z,1018.72
2016-08-13T06:54:49.349Z,1018.74
2016-08-13T06:55:14.953Z,1018.73
2016-08-13T06:55:40.520Z,1018.71
2016-08-13T06:56:06.293Z,1018.74
2016-08-13T06:56:32.028Z,1018.72
2016-08-13T06:56:57.603Z,1018.78
2016-08-13T06:57:23.162Z,1018.8
2016-08-13T06:57:48.697Z,1018.78
2016-08-13T06:58:14.278Z,1018.8
2016-08-13T06:58:39.852Z,1018.75
2016-08-13T06:59:05.458Z,1018.76
2016-08-13T06:59:31.304Z,1018.72
2016-08-13T07:00:34.479Z,1018.72
2016-08-13T07:01:00.095Z,1018.72
2016-08-13T07:01:25.649Z,1018.78
2016-08-13T07:01:51.202Z,1018.72
2016-08-13T07:02:16.818Z,1018.74
2016-08-13T07:02:42.411Z,1018.75
2016-08-13T07:03:07.973Z,1018.75
2016-08-13T07:03:33.541Z,1018.75
2016-08-13T07:03:59.111Z,1018.8
2016-08-13T07:04:24.656Z,1018.81
2016-08-13T07:04:50.225Z,1018.78
2016-08-13T07:05:15.814Z,1018.76
2016-08-13T07:05:41.411Z,1018.8
2016-08-13T07:06:06.976Z,1018.72
2016-08-13T07:06:32.551Z,1018.75
2016-08-13T07:06:58.113Z,1018.75
2016-08-13T07:07:23.745Z,1018.71
2016-08-13T07:07:49.422Z,1018.75
2016-08-13T07:08:14.998Z,1018.73
2016-08-13T07:08:40.573Z,1018.67
2016-08-13T07:09:06.347Z,1018.8
2016-08-13T07:09:31.953Z,1018.76
2016-08-13T07:09:57.516Z,1018.74
2016-08-13T07:10:23.083Z,1018.78
2016-08-13T07:10:48.706Z,1018.78
2016-08-13T07:11:14.198Z,1018.78
2016-08-13T07:11:39.805Z,1018.81
2016-08-13T07:12:38.090Z,1018.81
2016-08-13T07:13:03.637Z,1018.79
2016-08-13T07:13:29.204Z,1018.82
2016-08-13T07:13:54.776Z,1018.81
2016-08-13T07:14:20.437Z,1018.81
2016-08-13T07:14:46.002Z,1018.79
2016-08-13T07:15:11.540Z,1018.83
2016-08-13T07:15:37.207Z,1018.79
2016-08-13T07:16:02.934Z,1018.83
2016-08-13T07:16:28.471Z,1018.82
2016-08-13T07:16:54.104Z,1018.84
2016-08-13T07:17:19.662Z,1018.84
2016-08-13T07:17:45.206Z,1018.84
2016-08-13T07:18:10.771Z,1018.82
2016-08-13T07:18:36.383Z,1018.86
2016-08-13T07:19:01.920Z,1018.88
2016-08-13T07:19:27.486Z,1018.86
2016-08-13T07:19:53.051Z,1018.88
2016-08-13T07:20:18.695Z,1018.85
2016-08-13T07:20:44.252Z,1018.84
2016-08-13T07:21:09.813Z,1018.88
2016-08-13T07:21:35.357Z,1018.84
2016-08-13T07:22:00.927Z,1018.85
2016-08-13T07:22:26.557Z,1018.84
2016-08-13T07:22:52.376Z,1018.83
2016-08-13T07:23:17.949Z,1018.87
2016-08-13T07:23:43.518Z,1018.83
2016-08-13T07:24:09.142Z,1018.86
2016-08-13T07:24:34.764Z,1018.89
2016-08-13T07:25:00.296Z,1018.92
2016-08-13T07:25:25.876Z,1018.89
2016-08-13T07:25:51.428Z,1018.86
2016-08-13T07:26:17.016Z,1018.89
2016-08-13T07:26:42.639Z,1018.91
2016-08-13T07:27:08.204Z,1018.89
2016-08-13T07:27:33.826Z,1018.89
2016-08-13T07:27:59.519Z,1018.87
2016-08-13T07:28:24.960Z,1018.87
2016-08-13T07:28:50.691Z,1018.92
2016-08-13T07:29:16.104Z,1018.91
2016-08-13T07:29:41.677Z,1018.91
2016-08-13T07:30:07.316Z,1018.99
2016-08-13T07:30:32.890Z,1018.97
2016-08-13T07:30:58.457Z,1018.89
2016-08-13T07:31:24.021Z,1018.94
2016-08-13T07:31:49.601Z,1019.01
2016-08-13T07:32:15.187Z,1018.98
2016-08-13T07:32:40.768Z,1018.96
2016-08-13T07:33:06.339Z,1018.96
2016-08-13T07:33:31.918Z,1018.96
2016-08-13T07:33:57.488Z,1018.97
2016-08-13T07:34:23.042Z,1019.01
2016-08-13T07:34:48.706Z,1018.95
2016-08-13T07:35:14.317Z,1018.93
2016-08-13T07:35:40.026Z,1018.94
2016-08-13T07:36:05.636Z,1019
2016-08-13T07:36:31.201Z,1018.98
2016-08-13T07:36:56.808Z,1018.98
2016-08-13T07:37:22.363Z,1018.95
2016-08-13T07:37:47.936Z,1019.03
2016-08-13T07:38:13.506Z,1019.05
2016-08-13T07:38:39.096Z,1019.01
2016-08-13T07:39:04.715Z,1019
2016-08-13T07:39:30.329Z,1019.06
2016-08-13T07:39:55.937Z,1019.09
2016-08-13T07:40:21.552Z,1019.07
2016-08-13T07:40:47.129Z,1019.03
2016-08-13T07:41:12.698Z,1019
2016-08-13T07:41:38.272Z,1019.02
2016-08-13T07:42:03.826Z,1019.07
2016-08-13T07:42:29.398Z,1019.07
2016-08-13T07:42:55.046Z,1019.03
2016-08-13T07:43:20.568Z,1019.05
2016-08-13T07:43:46.233Z,1019.05
2016-08-13T07:44:12.075Z,1019.05
2016-08-13T07:44:37.756Z,1019.05
2016-08-13T07:45:03.512Z,1019.01
2016-08-13T07:45:29.092Z,1019.06
2016-08-13T07:45:54.704Z,1019.05
2016-08-13T07:46:20.250Z,1019.04
2016-08-13T07:46:45.875Z,1018.98
2016-08-13T07:47:11.449Z,1019.08
2016-08-13T07:47:36.998Z,1019.02
2016-08-13T07:48:02.569Z,1019
2016-08-13T07:48:28.145Z,1019.03
2016-08-13T07:48:53.718Z,1019.01
2016-08-13T07:49:19.294Z,1019.1
2016-08-13T07:49:44.868Z,1019.22
2016-08-13T07:50:10.437Z,1019.1
2016-08-13T07:50:36.046Z,1019.08
2016-08-13T07:51:01.628Z,1019.05
2016-08-13T07:51:27.254Z,1019.1
2016-08-13T07:51:52.866Z,1019.11
2016-08-13T07:52:18.440Z,1019.1
2016-08-13T07:52:44.008Z,1019.11
2016-08-13T07:53:09.633Z,1019.06
2016-08-13T07:53:35.202Z,1019.07
2016-08-13T07:54:00.864Z,1019.15
2016-08-13T07:54:26.409Z,1019.08
2016-08-13T07:54:51.945Z,1019.09
2016-08-13T07:55:17.495Z,1019.06
2016-08-13T07:55:43.035Z,1019.12
2016-08-13T07:56:08.573Z,1019.16
2016-08-13T07:56:34.131Z,1019.16
2016-08-13T07:56:59.690Z,1019.09
2016-08-13T07:57:25.228Z,1019.12
2016-08-13T07:57:50.842Z,1019.15
2016-08-13T07:58:16.360Z,1019.14
2016-08-13T07:58:41.901Z,1019.14
2016-08-13T07:59:07.431Z,1019.21
2016-08-13T07:59:32.980Z,1019.13
2016-08-13T07:59:58.528Z,1019.15
2016-08-13T08:00:24.099Z,1019.13
2016-08-13T08:00:49.642Z,1019.17
2016-08-13T08:01:15.204Z,1019.14
2016-08-13T08:01:40.773Z,1019.04
2016-08-13T08:02:06.310Z,1019.15
2016-08-13T08:02:31.849Z,1019.11
2016-08-13T08:02:57.451Z,1019.13
2016-08-13T08:03:23.050Z,1019.17
2016-08-13T08:04:36.495Z,1019.15
2016-08-13T08:05:02.058Z,1019.1
2016-08-13T08:05:27.607Z,1019.18
2016-08-13T08:05:53.171Z,1019.13
2016-08-13T08:06:18.724Z,1019.12
2016-08-13T08:06:44.299Z,1019.15
2016-08-13T08:07:09.869Z,1019.18
2016-08-13T08:07:35.455Z,1019.1
2016-08-13T08:08:01.016Z,1019.13
2016-08-13T08:08:26.726Z,1019.14
2016-08-13T08:08:52.300Z,1019.1
2016-08-13T08:09:17.849Z,1019.07
2016-08-13T08:09:43.409Z,1019.08
2016-08-13T08:10:08.964Z,1019.05
2016-08-13T08:10:34.533Z,1019.08
2016-08-13T08:11:00.108Z,1019.09
2016-08-13T08:11:25.662Z,1019.11
2016-08-13T08:11:51.320Z,1019.09
2016-08-13T08:12:16.918Z,1019.09
2016-08-13T08:12:42.511Z,1019.14
2016-08-13T08:13:08.082Z,1019.12
2016-08-13T08:13:33.619Z,1019.09
2016-08-13T08:13:59.206Z,1019.14
2016-08-13T08:14:24.838Z,1019.14
2016-08-13T08:15:38.276Z,1019.21
2016-08-13T08:16:03.829Z,1019.1
2016-08-13T08:16:29.466Z,1019.08
2016-08-13T08:16:55.061Z,1019.09
2016-08-13T08:17:20.627Z,1019.16
2016-08-13T08:17:46.210Z,1019.16
2016-08-13T08:18:11.777Z,1019.1
2016-08-13T08:18:37.319Z,1019.13
2016-08-13T08:19:02.886Z,1019.12
2016-08-13T08:19:28.471Z,1019.12
2016-08-13T08:19:54.013Z,1019.12
2016-08-13T08:20:19.579Z,1019.14
2016-08-13T08:20:45.139Z,1019.15
2016-08-13T08:21:10.710Z,1019.16
2016-08-13T08:21:36.276Z,1019.18
2016-08-13T08:22:01.852Z,1019.21
2016-08-13T08:22:27.411Z,1019.16
2016-08-13T08:22:53.007Z,1019.08
2016-08-13T08:23:18.551Z,1019.16
2016-08-13T08:23:44.120Z,1019.14
2016-08-13T08:24:09.727Z,1019.09
2016-08-13T08:24:35.269Z,1019.09
2016-08-13T08:25:00.810Z,1019.13
2016-08-13T08:25:26.371Z,1019.13
2016-08-13T08:25:51.918Z,1019.11
2016-08-13T08:26:17.471Z,1019.19
2016-08-13T08:26:43.037Z,1019.13
2016-08-13T08:27:08.873Z,1019.24
2016-08-13T08:27:34.427Z,1019.17
2016-08-13T08:28:42.818Z,1019.11
2016-08-13T08:29:08.372Z,1019.15
2016-08-13T08:29:33.955Z,1019.1
2016-08-13T08:29:59.505Z,1019.1
2016-08-13T08:30:25.069Z,1019.09
2016-08-13T08:30:50.654Z,1019.1
2016-08-13T08:31:16.218Z,1019.09
2016-08-13T08:31:41.775Z,1019.1
2016-08-13T08:32:07.365Z,1019.07
2016-08-13T08:32:32.952Z,1019.13
2016-08-13T08:32:58.686Z,1019.06
2016-08-13T08:33:24.279Z,1019.14
2016-08-13T08:33:49.862Z,1019.12
2016-08-13T08:34:15.423Z,1019.13
2016-08-13T08:34:41.150Z,1019.12
2016-08-13T08:35:06.744Z,1019.08
2016-08-13T08:35:32.333Z,1019.12
2016-08-13T08:35:57.900Z,1019.14
2016-08-13T08:36:23.468Z,1019.19
2016-08-13T08:36:49.084Z,1019.16
2016-08-13T08:37:14.656Z,1019.21
2016-08-13T08:37:40.313Z,1019.14
2016-08-13T08:38:05.894Z,1019.16
2016-08-13T08:38:31.454Z,1019.13
2016-08-13T08:38:57.156Z,1019.1
2016-08-13T08:39:22.720Z,1019.12
2016-08-13T08:39:48.274Z,1019.14
2016-08-13T08:40:13.922Z,1019.17
2016-08-13T08:40:39.484Z,1019.13
2016-08-13T08:41:05.123Z,1019.15
2016-08-13T08:41:30.705Z,1019.12
2016-08-13T08:41:56.349Z,1019.15
2016-08-13T08:42:21.916Z,1019.16
2016-08-13T08:42:47.478Z,1019.13
2016-08-13T08:43:13.221Z,1019.08
2016-08-13T08:43:38.775Z,1019.12
2016-08-13T08:44:04.356Z,1019.15
2016-08-13T08:44:29.911Z,1019.17
2016-08-13T08:44:55.464Z,1019.18
2016-08-13T08:45:21.013Z,1019.12
2016-08-13T08:45:46.562Z,1019.09
2016-08-13T08:46:12.107Z,1019.17
2016-08-13T08:46:37.646Z,1019.17
2016-08-13T08:47:03.201Z,1019.2
2016-08-13T08:47:28.825Z,1019.19
2016-08-13T08:47:54.361Z,1019.24
2016-08-13T08:48:19.937Z,1019.21
2016-08-13T08:48:45.502Z,1019.26
2016-08-13T08:49:11.076Z,1019.22
2016-08-13T08:49:36.616Z,1019.25
2016-08-13T08:50:02.174Z,1019.28
2016-08-13T08:50:27.715Z,1019.24
2016-08-13T08:50:53.258Z,1019.27
2016-08-13T08:51:19.265Z,1019.28
2016-08-13T08:51:44.812Z,1019.3
2016-08-13T08:52:10.380Z,1019.26
2016-08-13T08:52:35.921Z,1019.28
2016-08-13T08:53:01.481Z,1019.23
2016-08-13T08:53:27.052Z,1019.28
2016-08-13T08:53:52.609Z,1019.24
2016-08-13T08:54:18.255Z,1019.29
2016-08-13T08:54:43.821Z,1019.25
2016-08-13T08:55:09.512Z,1019.24
2016-08-13T08:55:35.063Z,1019.25
2016-08-13T08:56:00.608Z,1019.27
2016-08-13T08:56:26.162Z,1019.21
2016-08-13T08:56:51.771Z,1019.21
2016-08-13T08:57:17.331Z,1019.26
2016-08-13T08:57:42.867Z,1019.24
2016-08-13T08:58:08.438Z,1019.24
2016-08-13T08:58:34.061Z,1019.25
2016-08-13T08:58:59.642Z,1019.2
2016-08-13T08:59:25.182Z,1019.28
2016-08-13T08:59:50.746Z,1019.25
2016-08-13T09:00:16.435Z,1019.25
2016-08-13T09:00:42.019Z,1019.17
2016-08-13T09:01:07.583Z,1019.24
2016-08-13T09:01:33.156Z,1019.23
2016-08-13T09:01:58.892Z,1019.21
2016-08-13T09:02:24.439Z,1019.24
2016-08-13T09:02:49.971Z,1019.26
2016-08-13T09:03:15.549Z,1019.24
2016-08-13T09:03:41.575Z,1019.29
2016-08-13T09:04:07.285Z,1019.3
2016-08-13T09:04:32.842Z,1019.27
2016-08-13T09:04:58.389Z,1019.33
2016-08-13T09:05:24.215Z,1019.24
2016-08-13T09:05:49.969Z,1019.34
2016-08-13T09:06:15.569Z,1019.31
2016-08-13T09:06:41.129Z,1019.25
2016-08-13T09:07:06.726Z,1019.33
2016-08-13T09:07:32.393Z,1019.32
2016-08-13T09:07:57.986Z,1019.3
2016-08-13T09:08:23.552Z,1019.3
2016-08-13T09:08:49.108Z,1019.34
2016-08-13T09:09:14.763Z,1019.28
2016-08-13T09:09:40.326Z,1019.3
2016-08-13T09:10:05.897Z,1019.28
2016-08-13T09:10:31.484Z,1019.3
2016-08-13T09:10:57.044Z,1019.34
2016-08-13T09:11:22.653Z,1019.33
2016-08-13T09:11:48.207Z,1019.35
2016-08-13T09:12:13.760Z,1019.4
2016-08-13T09:12:39.369Z,1019.36
2016-08-13T09:13:04.914Z,1019.39
2016-08-13T09:13:30.475Z,1019.34
2016-08-13T09:13:56.049Z,1019.32
2016-08-13T09:14:21.613Z,1019.38
2016-08-13T09:14:47.287Z,1019.36
2016-08-13T09:15:12.846Z,1019.37
2016-08-13T09:15:38.431Z,1019.35
2016-08-13T09:16:04.073Z,1019.31
2016-08-13T09:16:29.629Z,1019.35
2016-08-13T09:16:55.204Z,1019.35
2016-08-13T09:17:20.749Z,1019.34
2016-08-13T09:17:46.339Z,1019.37
2016-08-13T09:18:11.905Z,1019.33
2016-08-13T09:18:38.009Z,1019.34
2016-08-13T09:19:03.826Z,1019.37
2016-08-13T09:19:29.475Z,1019.37
2016-08-13T09:19:55.054Z,1019.35
2016-08-13T09:20:20.623Z,1019.42
2016-08-13T09:20:46.200Z,1019.44
2016-08-13T09:21:11.871Z,1019.38
2016-08-13T09:21:37.440Z,1019.39
2016-08-13T09:22:03.008Z,1019.39
2016-08-13T09:22:28.587Z,1019.41
2016-08-13T09:22:54.170Z,1019.41
2016-08-13T09:23:19.754Z,1019.38
2016-08-13T09:23:45.335Z,1019.43
2016-08-13T09:24:10.913Z,1019.45
2016-08-13T09:24:36.462Z,1019.45
2016-08-13T09:25:02.031Z,1019.4
2016-08-13T09:25:27.605Z,1019.42
2016-08-13T09:25:53.221Z,1019.37
2016-08-13T09:26:18.803Z,1019.38
2016-08-13T09:26:44.376Z,1019.35